createdAt,value
2022-07-28T00:00:48.446Z,98339.13
2022-07-28T00:03:15.137Z,98335.13
2022-07-28T00:05:41.779Z,98338.69
2022-07-28T00:08:10.276Z,98337.63
2022-07-28T00:10:37.016Z,98343.91
2022-07-28T00:13:06.770Z,98339.72
2022-07-28T00:15:33.951Z,98342.72
2022-07-28T00:18:01.108Z,98334.09
2022-07-28T00:20:28.132Z,98329.31
2022-07-28T00:22:54.908Z,98338.06
2022-07-28T00:25:21.607Z,98334.53
2022-07-28T00:27:48.516Z,98335.06
2022-07-28T00:30:15.113Z,98329.41
2022-07-28T00:32:41.987Z,98332.28
2022-07-28T00:35:08.929Z,98330.44
2022-07-28T00:37:35.666Z,98332.38
2022-07-28T00:40:07.594Z,98332.00
2022-07-28T00:42:34.167Z,98324.81
2022-07-28T00:45:00.815Z,98322.78
2022-07-28T00:47:27.422Z,98323.06
2022-07-28T00:50:01.497Z,98323.97
2022-07-28T00:52:28.253Z,98320.94
2022-07-28T00:54:54.908Z,98319.63
2022-07-28T00:57:21.985Z,98327.28
2022-07-28T00:59:48.593Z,98317.34
2022-07-28T01:02:16.069Z,98321.28
2022-07-28T01:04:42.920Z,98320.16
2022-07-28T01:07:19.591Z,98319.72
2022-07-28T01:10:01.358Z,98311.47
2022-07-28T01:12:37.826Z,98308.78
2022-07-28T01:15:36.732Z,98303.78
2022-07-28T01:18:11.426Z,98299.13
2022-07-28T01:21:02.278Z,98297.53
2022-07-28T01:23:31.776Z,98303.19
2022-07-28T01:26:04.270Z,98303.63
2022-07-28T01:29:01.484Z,98304.53
2022-07-28T01:31:51.261Z,98301.72
2022-07-28T01:34:33.321Z,98302.97
2022-07-28T01:37:06.730Z,98298.44
2022-07-28T01:39:35.974Z,98304.56
2022-07-28T01:42:04.809Z,98300.03
2022-07-28T01:44:32.982Z,98291.59
2022-07-28T01:47:00.896Z,98297.91
2022-07-28T01:49:29.376Z,98286.63
2022-07-28T01:51:57.579Z,98293.25
2022-07-28T01:54:28.483Z,98289.88
2022-07-28T01:56:56.727Z,98291.72
2022-07-28T01:59:26.173Z,98287.78
2022-07-28T02:01:53.696Z,98286.72
2022-07-28T02:04:23.724Z,98279.38
2022-07-28T02:06:52.891Z,98270.25
2022-07-28T02:09:21.844Z,98262.56
2022-07-28T02:11:52.119Z,98278.97
2022-07-28T02:14:24.103Z,98276.16
2022-07-28T02:16:57.902Z,98275.13
2022-07-28T02:19:25.932Z,98262.78
2022-07-28T02:21:54.396Z,98269.59
2022-07-28T02:24:26.459Z,98262.84
2022-07-28T02:26:59.795Z,98258.94
2022-07-28T02:29:49.836Z,98254.97
2022-07-28T02:32:46.270Z,98249.00
2022-07-28T02:35:54.482Z,98254.50
2022-07-28T02:38:30.694Z,98251.22
2022-07-28T02:41:01.266Z,98250.06
2022-07-28T02:43:49.841Z,98245.63
2022-07-28T02:46:20.794Z,98248.66
2022-07-28T02:48:52.553Z,98239.69
2022-07-28T02:51:23.577Z,98240.53
2022-07-28T02:53:51.122Z,98243.81
2022-07-28T02:56:18.348Z,98250.09
2022-07-28T02:58:46.499Z,98255.59
2022-07-28T03:01:13.911Z,98246.81
2022-07-28T03:03:44.038Z,98243.47
2022-07-28T03:06:11.037Z,98240.16
2022-07-28T03:08:37.960Z,98242.50
2022-07-28T03:11:09.457Z,98240.34
2022-07-28T03:13:36.189Z,98238.25
2022-07-28T03:16:02.796Z,98232.94
2022-07-28T03:18:29.479Z,98240.59
2022-07-28T03:20:56.898Z,98241.63
2022-07-28T03:23:30.083Z,98237.59
2022-07-28T03:26:02.975Z,98234.00
2022-07-28T03:28:32.316Z,98238.66
2022-07-28T03:31:07.789Z,98242.63
2022-07-28T03:33:34.525Z,98236.22
2022-07-28T03:36:05.819Z,98237.34
2022-07-28T03:38:37.586Z,98230.47
2022-07-28T03:41:08.065Z,98228.53
2022-07-28T03:43:35.302Z,98227.59
2022-07-28T03:46:01.994Z,98229.19
2022-07-28T03:48:32.329Z,98238.28
2022-07-28T03:50:59.335Z,98235.97
2022-07-28T03:53:28.221Z,98237.31
2022-07-28T03:55:54.971Z,98239.16
2022-07-28T03:58:28.711Z,98230.56
2022-07-28T04:00:55.839Z,98238.75
2022-07-28T04:03:36.584Z,98235.88
2022-07-28T04:06:09.521Z,98238.94
2022-07-28T04:08:36.131Z,98238.78
2022-07-28T04:11:02.736Z,98236.06
2022-07-28T04:13:32.036Z,98236.53
2022-07-28T04:15:59.629Z,98227.00
2022-07-28T04:18:26.215Z,98230.66
2022-07-28T04:20:53.104Z,98232.19
2022-07-28T04:23:21.041Z,98237.00
2022-07-28T04:25:48.083Z,98241.06
2022-07-28T04:28:15.766Z,98231.63
2022-07-28T04:30:44.264Z,98236.06
2022-07-28T04:33:12.226Z,98230.25
2022-07-28T04:35:38.894Z,98229.66
2022-07-28T04:38:06.020Z,98236.13
2022-07-28T04:40:34.491Z,98231.13
2022-07-28T04:43:01.449Z,98229.53
2022-07-28T04:45:28.169Z,98222.09
2022-07-28T04:47:54.750Z,98216.44
2022-07-28T04:50:21.651Z,98224.50
2022-07-28T04:52:57.572Z,98221.31
2022-07-28T04:55:25.412Z,98224.91
2022-07-28T04:57:52.046Z,98216.78
2022-07-28T05:00:19.853Z,98222.22
2022-07-28T05:02:49.175Z,98224.66
2022-07-28T05:05:15.974Z,98221.47
2022-07-28T05:07:42.667Z,98222.34
2022-07-28T05:10:11.347Z,98218.38
2022-07-28T05:12:38.285Z,98228.09
2022-07-28T05:15:06.036Z,98226.13
2022-07-28T05:17:32.770Z,98220.47
2022-07-28T05:19:59.588Z,98214.91
2022-07-28T05:22:26.843Z,98215.84
2022-07-28T05:24:53.434Z,98221.44
2022-07-28T05:27:20.464Z,98223.56
2022-07-28T05:29:48.071Z,98227.13
2022-07-28T05:32:17.174Z,98221.13
2022-07-28T05:34:45.154Z,98230.53
2022-07-28T05:37:12.185Z,98227.75
2022-07-28T05:39:39.107Z,98235.47
2022-07-28T05:42:06.117Z,98229.91
2022-07-28T05:44:37.830Z,98232.06
2022-07-28T05:47:05.624Z,98234.34
2022-07-28T05:49:32.502Z,98234.50
2022-07-28T05:51:59.096Z,98233.41
2022-07-28T05:54:25.926Z,98232.28
2022-07-28T05:56:52.693Z,98232.13
2022-07-28T05:59:19.607Z,98229.50
2022-07-28T06:01:46.730Z,98237.06
2022-07-28T06:04:29.440Z,98231.03
2022-07-28T06:06:56.386Z,98231.00
2022-07-28T06:09:23.107Z,98226.91
2022-07-28T06:11:52.605Z,98233.22
2022-07-28T06:14:19.524Z,98228.47
2022-07-28T06:16:51.271Z,98231.91
2022-07-28T06:19:18.860Z,98225.09
2022-07-28T06:21:45.476Z,98218.78
2022-07-28T06:24:12.437Z,98222.22
2022-07-28T06:26:44.265Z,98222.53
2022-07-28T06:29:11.800Z,98220.22
2022-07-28T06:31:39.126Z,98219.00
2022-07-28T06:34:06.160Z,98227.41
2022-07-28T06:36:32.760Z,98222.56
2022-07-28T06:38:59.419Z,98222.94
2022-07-28T06:41:26.071Z,98221.44
2022-07-28T06:43:52.741Z,98232.91
2022-07-28T06:46:19.986Z,98221.84
2022-07-28T06:48:46.809Z,98227.47
2022-07-28T06:51:15.413Z,98236.56
2022-07-28T06:53:42.006Z,98232.88
2022-07-28T06:56:10.212Z,98239.19
2022-07-28T06:58:40.593Z,98250.38
2022-07-28T07:01:09.969Z,98252.59
2022-07-28T07:03:36.802Z,98245.91
2022-07-28T07:06:03.834Z,98247.59
2022-07-28T07:08:30.539Z,98239.69
2022-07-28T07:10:57.320Z,98239.72
2022-07-28T07:13:24.933Z,98239.94
2022-07-28T07:15:51.683Z,98242.19
2022-07-28T07:18:18.349Z,98236.00
2022-07-28T07:20:45.095Z,98239.84
2022-07-28T07:23:11.759Z,98239.69
2022-07-28T07:25:38.452Z,98234.56
2022-07-28T07:28:05.140Z,98236.94
2022-07-28T07:30:31.718Z,98231.31
2022-07-28T07:32:58.335Z,98225.50
2022-07-28T07:35:25.068Z,98224.06
2022-07-28T07:37:51.654Z,98217.00
2022-07-28T07:40:19.440Z,98214.13
2022-07-28T07:42:46.018Z,98217.31
2022-07-28T07:45:12.616Z,98219.13
2022-07-28T07:47:39.307Z,98213.38
2022-07-28T07:50:06.570Z,98206.34
2022-07-28T07:52:33.286Z,98211.69
2022-07-28T07:54:59.941Z,98204.13
2022-07-28T07:57:26.557Z,98205.97
2022-07-28T07:59:53.206Z,98207.56
2022-07-28T08:02:19.838Z,98204.81
2022-07-28T08:04:46.593Z,98211.75
2022-07-28T08:07:14.475Z,98211.06
2022-07-28T08:09:41.082Z,98211.28
2022-07-28T08:12:08.105Z,98206.69
2022-07-28T08:14:34.703Z,98212.69
2022-07-28T08:17:02.019Z,98214.38
2022-07-28T08:19:28.664Z,98205.13
2022-07-28T08:21:58.023Z,98204.91
2022-07-28T08:24:27.623Z,98205.03
2022-07-28T08:27:03.642Z,98211.44
2022-07-28T08:29:30.496Z,98210.88
2022-07-28T08:31:57.858Z,98210.13
2022-07-28T08:34:31.201Z,98201.03
2022-07-28T08:37:01.687Z,98207.06
2022-07-28T08:39:28.345Z,98194.16
2022-07-28T08:41:58.974Z,98213.31
2022-07-28T08:44:33.245Z,98197.91
2022-07-28T08:47:00.147Z,98201.94
2022-07-28T08:49:28.091Z,98200.53
2022-07-28T08:51:59.304Z,98200.50
2022-07-28T08:54:28.334Z,98198.31
2022-07-28T08:56:57.013Z,98194.69
2022-07-28T08:59:24.536Z,98197.38
2022-07-28T09:01:57.450Z,98192.97
2022-07-28T09:04:27.520Z,98187.59
2022-07-28T09:06:55.160Z,98180.63
2022-07-28T09:09:22.503Z,98203.94
2022-07-28T09:11:49.156Z,98191.13
2022-07-28T09:14:16.317Z,98194.94
2022-07-28T09:16:43.194Z,98187.00
2022-07-28T09:19:09.888Z,98187.31
2022-07-28T09:21:36.824Z,98185.31
2022-07-28T09:24:03.636Z,98180.56
2022-07-28T09:26:30.208Z,98182.56
2022-07-28T09:28:59.149Z,98175.91
2022-07-28T09:31:28.580Z,98178.69
2022-07-28T09:34:02.230Z,98180.16
2022-07-28T09:36:40.140Z,98178.25
2022-07-28T09:39:07.169Z,98182.47
2022-07-28T09:41:50.094Z,98175.38
2022-07-28T09:44:21.567Z,98181.16
2022-07-28T09:46:49.092Z,98173.72
2022-07-28T09:49:15.891Z,98171.63
2022-07-28T09:51:42.867Z,98169.06
2022-07-28T09:54:13.583Z,98166.69
2022-07-28T09:56:44.131Z,98170.09
2022-07-28T09:59:12.847Z,98173.22
2022-07-28T10:01:59.777Z,98158.22
2022-07-28T10:04:33.681Z,98162.13
2022-07-28T10:07:09.923Z,98158.78
2022-07-28T10:09:37.683Z,98163.72
2022-07-28T10:12:30.750Z,98167.75
2022-07-28T10:15:37.662Z,98163.94
2022-07-28T10:18:05.517Z,98161.22
2022-07-28T10:20:33.918Z,98160.19
2022-07-28T10:23:06.161Z,98155.50
2022-07-28T10:25:34.651Z,98147.78
2022-07-28T10:28:03.057Z,98138.00
2022-07-28T10:30:31.709Z,98139.97
2022-07-28T10:32:59.697Z,98144.50
2022-07-28T10:35:27.413Z,98137.63
2022-07-28T10:38:03.855Z,98137.13
2022-07-28T10:40:35.821Z,98135.03
2022-07-28T10:43:02.882Z,98135.94
2022-07-28T10:45:55.134Z,98131.38
2022-07-28T10:48:16.836Z,98132.31
2022-07-28T10:50:44.590Z,98132.72
2022-07-28T10:53:12.762Z,98133.19
2022-07-28T10:55:49.346Z,98131.00
2022-07-28T10:58:37.978Z,98140.47
2022-07-28T11:01:06.358Z,98135.78
2022-07-28T11:03:37.443Z,98126.72
2022-07-28T11:06:37.037Z,98114.19
2022-07-28T11:09:16.020Z,98129.25
2022-07-28T11:11:43.599Z,98132.72
2022-07-28T11:14:30.864Z,98124.09
2022-07-28T11:17:00.426Z,98119.22
2022-07-28T11:19:42.333Z,98110.72
2022-07-28T11:22:22.384Z,98103.19
2022-07-28T11:25:18.928Z,98108.13
2022-07-28T11:27:51.541Z,98110.78
2022-07-28T11:30:18.773Z,98098.16
2022-07-28T11:33:11.765Z,98108.31
2022-07-28T11:35:41.083Z,98101.81
2022-07-28T11:38:09.702Z,98102.66
2022-07-28T11:40:52.740Z,98107.38
2022-07-28T11:43:36.553Z,98106.94
2022-07-28T11:46:10.491Z,98097.84
2022-07-28T11:48:42.945Z,98095.88
2022-07-28T11:51:11.508Z,98093.56
2022-07-28T11:53:51.173Z,98089.97
2022-07-28T11:56:29.198Z,98096.72
2022-07-28T11:59:04.503Z,98098.03
2022-07-28T12:01:32.340Z,98093.22
2022-07-28T12:04:13.554Z,98096.72
2022-07-28T12:06:43.034Z,98081.63
2022-07-28T12:09:11.461Z,98087.91
2022-07-28T12:11:43.888Z,98083.94
2022-07-28T12:14:15.790Z,98086.28
2022-07-28T12:16:45.323Z,98084.78
2022-07-28T12:19:15.589Z,98082.69
2022-07-28T12:21:50.810Z,98079.28
2022-07-28T12:24:28.638Z,98077.69
2022-07-28T12:26:57.919Z,98078.56
2022-07-28T12:29:32.266Z,98077.75
2022-07-28T12:32:06.304Z,98074.50
2022-07-28T12:34:39.906Z,98075.66
2022-07-28T12:37:10.008Z,98077.16
2022-07-28T12:39:39.769Z,98072.72
2022-07-28T12:42:08.724Z,98073.88
2022-07-28T12:44:41.448Z,98083.16
2022-07-28T12:47:12.184Z,98077.75
2022-07-28T12:49:43.761Z,98078.28
2022-07-28T12:52:22.197Z,98073.78
2022-07-28T12:54:55.370Z,98065.53
2022-07-28T12:57:50.446Z,98069.75
2022-07-28T13:00:23.156Z,98068.50
2022-07-28T13:02:51.891Z,98066.91
2022-07-28T13:05:30.713Z,98058.41
2022-07-28T13:08:02.254Z,98064.56
2022-07-28T13:10:30.240Z,98064.06
2022-07-28T13:13:02.927Z,98062.31
2022-07-28T13:15:29.722Z,98065.88
2022-07-28T13:17:57.232Z,98056.03
2022-07-28T13:20:24.948Z,98054.22
2022-07-28T13:22:52.685Z,98061.28
2022-07-28T13:25:20.260Z,98056.56
2022-07-28T13:27:52.222Z,98057.72
2022-07-28T13:30:21.504Z,98055.09
2022-07-28T13:32:49.323Z,98062.50
2022-07-28T13:35:16.064Z,98051.41
2022-07-28T13:37:46.056Z,98045.47
2022-07-28T13:40:13.014Z,98041.97
2022-07-28T13:42:39.615Z,98035.56
2022-07-28T13:45:06.664Z,98036.72
2022-07-28T13:47:35.558Z,98030.75
2022-07-28T13:50:06.029Z,98020.56
2022-07-28T13:52:35.204Z,98020.38
2022-07-28T13:55:06.259Z,98024.66
2022-07-28T13:57:36.330Z,98024.38
2022-07-28T14:00:07.451Z,98027.69
2022-07-28T14:02:34.642Z,98016.72
2022-07-28T14:05:01.717Z,98019.81
2022-07-28T14:07:28.690Z,98018.28
2022-07-28T14:09:55.266Z,98007.84
2022-07-28T14:12:21.851Z,98011.28
2022-07-28T14:14:49.052Z,98017.88
2022-07-28T14:17:42.571Z,98026.25
2022-07-28T14:20:04.625Z,98014.38
2022-07-28T14:22:31.298Z,98012.09
2022-07-28T14:24:57.880Z,98019.16
2022-07-28T14:27:28.921Z,98016.31
2022-07-28T14:29:56.101Z,98016.03
2022-07-28T14:32:23.314Z,98014.38
2022-07-28T14:34:50.573Z,98003.47
2022-07-28T14:37:17.677Z,98008.44
2022-07-28T14:39:44.423Z,98014.72
2022-07-28T14:42:11.514Z,98002.78
2022-07-28T14:44:38.241Z,98008.81
2022-07-28T14:47:06.599Z,98005.41
2022-07-28T14:49:35.145Z,98004.56
2022-07-28T14:52:02.574Z,98000.19
2022-07-28T14:54:29.991Z,98000.75
2022-07-28T14:56:56.756Z,97997.59
2022-07-28T14:59:23.631Z,98007.31
2022-07-28T15:01:50.632Z,98001.00
2022-07-28T15:04:18.622Z,98000.81
2022-07-28T15:06:45.922Z,97990.25
2022-07-28T15:09:13.387Z,97987.44
2022-07-28T15:11:41.331Z,97992.22
2022-07-28T15:14:08.112Z,97986.28
2022-07-28T15:16:34.871Z,97998.13
2022-07-28T15:19:02.516Z,97999.22
2022-07-28T15:21:34.390Z,97995.59
2022-07-28T15:24:03.072Z,97988.00
2022-07-28T15:26:29.799Z,97999.28
2022-07-28T15:28:56.410Z,97995.47
2022-07-28T15:31:25.579Z,97984.31
2022-07-28T15:33:55.620Z,97985.41
2022-07-28T15:36:25.631Z,97994.66
2022-07-28T15:38:53.841Z,97995.38
2022-07-28T15:41:20.715Z,97984.16
2022-07-28T15:43:47.672Z,97988.84
2022-07-28T15:46:14.748Z,97971.72
2022-07-28T15:48:43.562Z,97985.25
2022-07-28T15:51:11.198Z,97976.72
2022-07-28T15:53:38.673Z,97975.97
2022-07-28T15:56:05.627Z,97969.88
2022-07-28T15:58:32.246Z,97976.88
2022-07-28T16:01:01.028Z,97971.41
2022-07-28T16:03:29.545Z,97967.69
2022-07-28T16:05:56.321Z,97970.00
2022-07-28T16:08:23.560Z,97978.44
2022-07-28T16:10:52.683Z,97963.38
2022-07-28T16:13:36.222Z,97968.53
2022-07-28T16:16:09.217Z,97963.34
2022-07-28T16:18:37.561Z,97962.53
2022-07-28T16:21:05.498Z,97956.06
2022-07-28T16:23:32.287Z,97964.88
2022-07-28T16:25:59.355Z,97958.72
2022-07-28T16:28:26.660Z,97958.56
2022-07-28T16:30:54.922Z,97962.69
2022-07-28T16:33:21.576Z,97952.72
2022-07-28T16:35:48.382Z,97950.72
2022-07-28T16:38:15.001Z,97949.69
2022-07-28T16:40:41.760Z,97953.13
2022-07-28T16:43:08.339Z,97952.44
2022-07-28T16:45:35.773Z,97952.25
2022-07-28T16:48:03.970Z,97951.66
2022-07-28T16:50:31.852Z,97940.53
2022-07-28T16:52:59.730Z,97949.44
2022-07-28T16:55:26.861Z,97938.94
2022-07-28T16:57:54.021Z,97944.13
2022-07-28T17:00:21.585Z,97947.13
2022-07-28T17:02:48.330Z,97943.84
2022-07-28T17:05:15.025Z,97940.31
2022-07-28T17:07:45.201Z,97934.31
2022-07-28T17:10:14.854Z,97934.56
2022-07-28T17:12:41.955Z,97945.50
2022-07-28T17:15:20.007Z,97945.88
2022-07-28T17:17:52.516Z,97948.84
2022-07-28T17:20:20.178Z,97949.69
2022-07-28T17:22:46.762Z,97945.28
2022-07-28T17:25:47.633Z,97948.34
2022-07-28T17:28:00.347Z,97941.16
2022-07-28T17:30:29.919Z,97943.47
2022-07-28T17:32:59.231Z,97940.06
2022-07-28T17:35:31.544Z,97942.41
2022-07-28T17:38:01.465Z,97941.75
2022-07-28T17:40:28.093Z,97930.41
2022-07-28T17:42:54.722Z,97937.31
2022-07-28T17:45:21.836Z,97934.53
2022-07-28T17:47:48.444Z,97927.91
2022-07-28T17:50:15.781Z,97931.00
2022-07-28T17:52:43.694Z,97934.41
2022-07-28T17:55:29.470Z,97937.13
2022-07-28T17:58:28.192Z,97936.03
2022-07-28T18:01:09.337Z,97935.00
2022-07-28T18:03:56.590Z,97943.34
2022-07-28T18:06:34.869Z,97932.41
2022-07-28T18:09:08.344Z,97939.22
2022-07-28T18:11:57.245Z,97934.72
2022-07-28T18:14:27.383Z,97937.09
2022-07-28T18:16:54.919Z,97937.09
2022-07-28T18:19:21.846Z,97949.97
2022-07-28T18:21:49.138Z,97943.59
2022-07-28T18:24:16.355Z,97942.84
2022-07-28T18:26:43.709Z,97939.47
2022-07-28T18:29:10.309Z,97939.47
2022-07-28T18:31:43.867Z,97941.38
2022-07-28T18:34:13.508Z,97942.16
2022-07-28T18:36:40.392Z,97942.16
2022-07-28T18:39:07.037Z,97952.41
2022-07-28T18:41:34.540Z,97956.63
2022-07-28T18:44:14.083Z,97953.56
2022-07-28T18:46:41.037Z,97953.56
2022-07-28T18:49:07.862Z,97957.38
2022-07-28T18:51:34.567Z,97966.88
2022-07-28T18:54:01.196Z,97963.09
2022-07-28T18:56:27.769Z,97964.56
2022-07-28T18:58:56.135Z,97966.84
2022-07-28T19:01:23.214Z,97968.75
2022-07-28T19:03:49.863Z,97968.78
2022-07-28T19:06:16.565Z,97969.13
2022-07-28T19:08:43.395Z,97970.59
2022-07-28T19:11:10.449Z,97976.69
2022-07-28T19:13:37.211Z,97975.13
2022-07-28T19:16:04.254Z,97968.31
2022-07-28T19:18:30.897Z,97968.28
2022-07-28T19:20:57.594Z,97968.69
2022-07-28T19:23:24.506Z,97970.56
2022-07-28T19:25:51.326Z,97973.19
2022-07-28T19:28:18.130Z,97979.22
2022-07-28T19:30:45.111Z,97980.75
2022-07-28T19:33:17.231Z,97980.69
2022-07-28T19:35:45.607Z,97986.75
2022-07-28T19:38:12.664Z,97979.88
2022-07-28T19:40:41.430Z,97984.78
2022-07-28T19:43:08.072Z,97984.38
2022-07-28T19:45:37.319Z,97990.81
2022-07-28T19:48:04.265Z,97988.91
2022-07-28T19:50:31.236Z,97995.31
2022-07-28T19:52:58.167Z,97988.44
2022-07-28T19:55:27.009Z,97995.56
2022-07-28T19:57:55.841Z,97996.31
2022-07-28T20:00:22.486Z,97998.16
2022-07-28T20:02:49.169Z,97999.22
2022-07-28T20:05:16.263Z,98006.78
2022-07-28T20:07:42.911Z,98015.41
2022-07-28T20:10:09.587Z,98019.19
2022-07-28T20:12:37.262Z,98020.16
2022-07-28T20:15:07.452Z,98017.53
2022-07-28T20:17:41.385Z,98020.94
2022-07-28T20:20:09.545Z,98021.66
2022-07-28T20:22:36.440Z,98022.72
2022-07-28T20:25:03.922Z,98025.66
2022-07-28T20:27:30.596Z,98028.22
2022-07-28T20:29:59.223Z,98019.88
2022-07-28T20:32:26.074Z,98016.13
2022-07-28T20:34:52.951Z,98020.66
2022-07-28T20:37:36.155Z,98027.00
2022-07-28T20:40:06.342Z,98034.22
2022-07-28T20:42:33.086Z,98037.97
2022-07-28T20:44:59.701Z,98039.53
2022-07-28T20:47:27.994Z,98033.88
2022-07-28T20:49:55.405Z,98040.63
2022-07-28T20:52:23.500Z,98038.72
2022-07-28T20:54:54.195Z,98037.56
2022-07-28T20:57:21.394Z,98044.38
2022-07-28T20:59:48.997Z,98041.56
2022-07-28T21:02:15.790Z,98044.22
2022-07-28T21:04:42.714Z,98050.16
2022-07-28T21:07:10.824Z,98047.78
2022-07-28T21:09:37.644Z,98046.19
2022-07-28T21:12:04.727Z,98044.22
2022-07-28T21:14:32.690Z,98051.97
2022-07-28T21:16:59.621Z,98068.94
2022-07-28T21:19:26.346Z,98058.59
2022-07-28T21:21:52.919Z,98059.03
2022-07-28T21:24:19.632Z,98052.91
2022-07-28T21:26:46.419Z,98051.28
2022-07-28T21:32:03.950Z,98055.09
2022-07-28T21:34:34.351Z,98063.66
2022-07-28T21:37:05.313Z,98066.25
2022-07-28T21:39:32.031Z,98061.00
2022-07-28T21:41:59.099Z,98063.34
2022-07-28T21:44:25.972Z,98056.19
2022-07-28T21:46:52.593Z,98063.63
2022-07-28T21:49:19.234Z,98071.56
2022-07-28T21:51:46.457Z,98069.66
2022-07-28T21:54:13.835Z,98073.00
2022-07-28T21:56:40.712Z,98065.38
2022-07-28T21:59:07.312Z,98071.97
2022-07-28T22:01:34.019Z,98065.44
2022-07-28T22:04:00.679Z,98070.97
2022-07-28T22:06:27.329Z,98080.81
2022-07-28T22:08:54.253Z,98076.69
2022-07-28T22:11:22.396Z,98074.25
2022-07-28T22:13:49.523Z,98082.13
2022-07-28T22:16:16.175Z,98079.44
2022-07-28T22:18:42.876Z,98083.84
2022-07-28T22:21:09.490Z,98082.94
2022-07-28T22:23:36.107Z,98074.75
2022-07-28T22:26:03.179Z,98075.09
2022-07-28T22:28:30.674Z,98075.72
2022-07-28T22:31:09.519Z,98080.53
2022-07-28T22:33:38.283Z,98074.94
2022-07-28T22:36:08.984Z,98071.41
2022-07-28T22:38:36.594Z,98065.13
2022-07-28T22:41:03.658Z,98069.59
2022-07-28T22:43:33.395Z,98071.53
2022-07-28T22:46:00.181Z,98070.44
2022-07-28T22:48:26.913Z,98074.22
2022-07-28T22:50:53.518Z,98071.22
2022-07-28T22:53:20.114Z,98062.22
2022-07-28T22:55:46.723Z,98066.66
2022-07-28T22:58:13.316Z,98077.84
2022-07-28T23:00:40.017Z,98074.03
2022-07-28T23:03:06.760Z,98073.69
2022-07-28T23:05:35.259Z,98067.56
2022-07-28T23:08:01.877Z,98065.88
2022-07-28T23:10:29.643Z,98060.56
2022-07-28T23:12:58.673Z,98065.22
2022-07-28T23:15:39.385Z,98060.78
2022-07-28T23:18:13.718Z,98062.69
2022-07-28T23:20:41.415Z,98060.41
2022-07-28T23:23:08.286Z,98052.47
2022-07-28T23:25:42.644Z,98056.34
2022-07-28T23:28:09.275Z,98056.38
2022-07-28T23:30:35.909Z,98058.22
2022-07-28T23:33:02.604Z,98054.44
2022-07-28T23:35:29.388Z,98053.13
2022-07-28T23:37:56.184Z,98055.06
2022-07-28T23:40:23.181Z,98053.50
2022-07-28T23:42:49.872Z,98052.94
2022-07-28T23:45:16.494Z,98056.63
2022-07-28T23:47:43.086Z,98054.59
2022-07-28T23:50:09.995Z,98050.22
2022-07-28T23:52:36.620Z,98055.91
2022-07-28T23:55:03.497Z,98058.25
2022-07-28T23:57:31.055Z,98054.38
2022-07-28T23:59:59.285Z,98049.13
